sensor_id;sensor_type;location;lat;lon;timestamp;temperature;humidity
12849;DHT22;6493;50.928;7.172;2022-10-30T00:03:26;14.50;56.70
12849;DHT22;6493;50.928;7.172;2022-10-30T00:08:29;14.50;56.70
12849;DHT22;6493;50.928;7.172;2022-10-30T00:13:33;14.50;56.60
12849;DHT22;6493;50.928;7.172;2022-10-30T00:18:38;14.40;56.60
12849;DHT22;6493;50.928;7.172;2022-10-30T00:23:47;14.50;56.60
12849;DHT22;6493;50.928;7.172;2022-10-30T00:28:52;14.40;56.60
12849;DHT22;6493;50.928;7.172;2022-10-30T00:33:56;14.50;56.70
12849;DHT22;6493;50.928;7.172;2022-10-30T00:39:00;14.50;56.70
12849;DHT22;6493;50.928;7.172;2022-10-30T00:44:36;14.40;56.60
12849;DHT22;6493;50.928;7.172;2022-10-30T00:49:49;14.40;56.60
12849;DHT22;6493;50.928;7.172;2022-10-30T00:54:55;14.40;57.20
12849;DHT22;6493;50.928;7.172;2022-10-30T00:59:59;14.40;56.60
12849;DHT22;6493;50.928;7.172;2022-10-30T01:05:05;14.30;56.60
12849;DHT22;6493;50.928;7.172;2022-10-30T01:10:11;14.30;56.60
12849;DHT22;6493;50.928;7.172;2022-10-30T01:15:14;14.30;56.60
12849;DHT22;6493;50.928;7.172;2022-10-30T01:25:54;14.20;56.60
12849;DHT22;6493;50.928;7.172;2022-10-30T01:31:09;14.10;56.50
12849;DHT22;6493;50.928;7.172;2022-10-30T01:36:19;14.10;56.60
12849;DHT22;6493;50.928;7.172;2022-10-30T01:41:24;14.00;56.60
12849;DHT22;6493;50.928;7.172;2022-10-30T01:46:41;14.00;56.60
12849;DHT22;6493;50.928;7.172;2022-10-30T01:51:54;13.90;57.20
12849;DHT22;6493;50.928;7.172;2022-10-30T01:57:07;13.90;56.70
12849;DHT22;6493;50.928;7.172;2022-10-30T02:02:15;13.80;56.70
12849;DHT22;6493;50.928;7.172;2022-10-30T02:07:19;13.80;56.70
12849;DHT22;6493;50.928;7.172;2022-10-30T02:12:25;13.80;56.70
12849;DHT22;6493;50.928;7.172;2022-10-30T02:17:28;13.70;56.70
12849;DHT22;6493;50.928;7.172;2022-10-30T02:22:33;13.70;56.70
12849;DHT22;6493;50.928;7.172;2022-10-30T02:27:37;13.70;57.30
12849;DHT22;6493;50.928;7.172;2022-10-30T02:32:43;13.70;56.80
12849;DHT22;6493;50.928;7.172;2022-10-30T02:37:48;13.60;56.70
12849;DHT22;6493;50.928;7.172;2022-10-30T02:42:52;13.60;56.80
12849;DHT22;6493;50.928;7.172;2022-10-30T02:47:55;13.60;56.80
12849;DHT22;6493;50.928;7.172;2022-10-30T02:53:02;13.50;56.70
12849;DHT22;6493;50.928;7.172;2022-10-30T02:58:06;13.40;56.60
12849;DHT22;6493;50.928;7.172;2022-10-30T03:03:09;13.30;56.60
12849;DHT22;6493;50.928;7.172;2022-10-30T03:08:15;13.20;56.60
12849;DHT22;6493;50.928;7.172;2022-10-30T03:13:19;13.10;56.60
12849;DHT22;6493;50.928;7.172;2022-10-30T03:18:22;13.10;56.70
12849;DHT22;6493;50.928;7.172;2022-10-30T03:23:27;13.00;56.70
12849;DHT22;6493;50.928;7.172;2022-10-30T03:28:31;12.90;57.40
12849;DHT22;6493;50.928;7.172;2022-10-30T03:33:36;12.80;56.80
12849;DHT22;6493;50.928;7.172;2022-10-30T03:38:40;12.70;56.70
12849;DHT22;6493;50.928;7.172;2022-10-30T03:43:47;12.70;56.70
12849;DHT22;6493;50.928;7.172;2022-10-30T03:48:51;12.60;56.60
12849;DHT22;6493;50.928;7.172;2022-10-30T03:53:58;12.50;56.50
12849;DHT22;6493;50.928;7.172;2022-10-30T03:59:01;12.40;56.70
12849;DHT22;6493;50.928;7.172;2022-10-30T04:04:09;12.30;56.70
12849;DHT22;6493;50.928;7.172;2022-10-30T04:09:15;12.20;56.70
12849;DHT22;6493;50.928;7.172;2022-10-30T04:14:18;12.20;56.80
12849;DHT22;6493;50.928;7.172;2022-10-30T04:19:22;12.10;56.80
12849;DHT22;6493;50.928;7.172;2022-10-30T04:24:26;12.10;56.90
12849;DHT22;6493;50.928;7.172;2022-10-30T04:29:30;12.00;56.90
12849;DHT22;6493;50.928;7.172;2022-10-30T04:34:35;12.00;57.00
12849;DHT22;6493;50.928;7.172;2022-10-30T04:39:41;11.90;57.00
12849;DHT22;6493;50.928;7.172;2022-10-30T04:44:53;11.90;57.10
12849;DHT22;6493;50.928;7.172;2022-10-30T04:49:58;11.80;57.00
12849;DHT22;6493;50.928;7.172;2022-10-30T04:55:03;11.80;57.10
12849;DHT22;6493;50.928;7.172;2022-10-30T05:00:09;11.70;57.10
12849;DHT22;6493;50.928;7.172;2022-10-30T05:05:13;11.70;57.10
12849;DHT22;6493;50.928;7.172;2022-10-30T05:10:17;11.60;57.10
12849;DHT22;6493;50.928;7.172;2022-10-30T05:15:21;11.60;57.10
12849;DHT22;6493;50.928;7.172;2022-10-30T05:20:24;11.50;57.10
12849;DHT22;6493;50.928;7.172;2022-10-30T05:25:29;11.50;57.10
12849;DHT22;6493;50.928;7.172;2022-10-30T05:30:35;11.40;57.20
12849;DHT22;6493;50.928;7.172;2022-10-30T05:35:45;11.40;57.70
12849;DHT22;6493;50.928;7.172;2022-10-30T05:40:50;11.30;57.20
12849;DHT22;6493;50.928;7.172;2022-10-30T05:45:54;11.20;57.20
12849;DHT22;6493;50.928;7.172;2022-10-30T05:50:57;11.10;57.10
12849;DHT22;6493;50.928;7.172;2022-10-30T05:56:05;11.00;57.20
12849;DHT22;6493;50.928;7.172;2022-10-30T06:01:09;11.00;57.40
12849;DHT22;6493;50.928;7.172;2022-10-30T06:06:19;10.90;57.40
12849;DHT22;6493;50.928;7.172;2022-10-30T06:11:25;10.80;57.40
12849;DHT22;6493;50.928;7.172;2022-10-30T06:16:32;10.80;57.50
12849;DHT22;6493;50.928;7.172;2022-10-30T06:22:01;10.70;57.50
12849;DHT22;6493;50.928;7.172;2022-10-30T06:27:23;10.70;57.50
12849;DHT22;6493;50.928;7.172;2022-10-30T06:32:28;10.60;57.80
12849;DHT22;6493;50.928;7.172;2022-10-30T06:37:31;10.60;57.70
12849;DHT22;6493;50.928;7.172;2022-10-30T06:42:45;10.50;58.00
12849;DHT22;6493;50.928;7.172;2022-10-30T06:48:08;10.50;58.00
12849;DHT22;6493;50.928;7.172;2022-10-30T06:53:20;10.50;58.20
12849;DHT22;6493;50.928;7.172;2022-10-30T06:58:25;10.50;58.20
12849;DHT22;6493;50.928;7.172;2022-10-30T07:03:41;10.60;58.40
12849;DHT22;6493;50.928;7.172;2022-10-30T07:08:45;10.70;58.70
12849;DHT22;6493;50.928;7.172;2022-10-30T07:13:51;11.00;59.30
12849;DHT22;6493;50.928;7.172;2022-10-30T07:19:06;11.20;59.40
12849;DHT22;6493;50.928;7.172;2022-10-30T07:24:09;11.60;60.20
12849;DHT22;6493;50.928;7.172;2022-10-30T07:29:23;12.20;62.20
12849;DHT22;6493;50.928;7.172;2022-10-30T07:34:58;13.00;62.50
12849;DHT22;6493;50.928;7.172;2022-10-30T07:40:16;13.80;62.80
12849;DHT22;6493;50.928;7.172;2022-10-30T07:45:26;14.60;62.70
12849;DHT22;6493;50.928;7.172;2022-10-30T07:50:48;15.20;62.30
12849;DHT22;6493;50.928;7.172;2022-10-30T07:55:51;15.80;62.00
12849;DHT22;6493;50.928;7.172;2022-10-30T08:01:15;16.30;62.20
12849;DHT22;6493;50.928;7.172;2022-10-30T08:06:18;16.90;61.80
12849;DHT22;6493;50.928;7.172;2022-10-30T08:11:28;17.40;61.30
12849;DHT22;6493;50.928;7.172;2022-10-30T08:16:34;17.80;60.70
12849;DHT22;6493;50.928;7.172;2022-10-30T08:21:38;18.20;60.60
12849;DHT22;6493;50.928;7.172;2022-10-30T08:26:50;18.60;60.80
12849;DHT22;6493;50.928;7.172;2022-10-30T08:31:58;19.00;60.30
12849;DHT22;6493;50.928;7.172;2022-10-30T08:37:36;19.40;59.70
12849;DHT22;6493;50.928;7.172;2022-10-30T08:42:39;19.80;59.00
12849;DHT22;6493;50.928;7.172;2022-10-30T08:47:46;20.00;58.10
12849;DHT22;6493;50.928;7.172;2022-10-30T08:52:50;20.00;56.40
12849;DHT22;6493;50.928;7.172;2022-10-30T08:57:56;19.90;55.70
12849;DHT22;6493;50.928;7.172;2022-10-30T09:03:01;19.60;53.60
12849;DHT22;6493;50.928;7.172;2022-10-30T09:08:44;19.10;53.80
12849;DHT22;6493;50.928;7.172;2022-10-30T09:14:02;18.60;54.50
12849;DHT22;6493;50.928;7.172;2022-10-30T09:19:06;18.20;53.60
12849;DHT22;6493;50.928;7.172;2022-10-30T09:24:10;17.80;54.20
12849;DHT22;6493;50.928;7.172;2022-10-30T09:29:13;17.50;54.20
12849;DHT22;6493;50.928;7.172;2022-10-30T09:34:38;17.20;54.50
12849;DHT22;6493;50.928;7.172;2022-10-30T09:40:02;17.00;54.70
12849;DHT22;6493;50.928;7.172;2022-10-30T09:45:25;17.00;55.40
12849;DHT22;6493;50.928;7.172;2022-10-30T09:50:38;16.90;54.80
12849;DHT22;6493;50.928;7.172;2022-10-30T09:55:50;17.00;54.90
12849;DHT22;6493;50.928;7.172;2022-10-30T10:01:07;17.00;55.30
12849;DHT22;6493;50.928;7.172;2022-10-30T10:06:21;17.00;55.20
12849;DHT22;6493;50.928;7.172;2022-10-30T10:11:46;17.10;54.80
12849;DHT22;6493;50.928;7.172;2022-10-30T10:16:52;17.10;54.80
12849;DHT22;6493;50.928;7.172;2022-10-30T10:21:58;17.20;55.10
12849;DHT22;6493;50.928;7.172;2022-10-30T10:27:09;17.30;55.20
12849;DHT22;6493;50.928;7.172;2022-10-30T10:32:43;17.40;55.10
12849;DHT22;6493;50.928;7.172;2022-10-30T10:37:55;17.50;53.60
12849;DHT22;6493;50.928;7.172;2022-10-30T10:43:12;17.60;54.40
12849;DHT22;6493;50.928;7.172;2022-10-30T10:48:34;17.70;54.30
12849;DHT22;6493;50.928;7.172;2022-10-30T10:53:47;17.70;54.00
12849;DHT22;6493;50.928;7.172;2022-10-30T10:58:53;17.80;54.20
12849;DHT22;6493;50.928;7.172;2022-10-30T11:04:02;17.90;54.70
12849;DHT22;6493;50.928;7.172;2022-10-30T11:09:14;18.00;54.60
12849;DHT22;6493;50.928;7.172;2022-10-30T11:14:22;18.20;53.80
12849;DHT22;6493;50.928;7.172;2022-10-30T11:19:27;18.30;54.10
12849;DHT22;6493;50.928;7.172;2022-10-30T11:24:33;18.40;54.30
12849;DHT22;6493;50.928;7.172;2022-10-30T11:29:37;18.40;54.00
12849;DHT22;6493;50.928;7.172;2022-10-30T11:34:40;18.50;53.80
12849;DHT22;6493;50.928;7.172;2022-10-30T11:40:00;18.60;54.30
12849;DHT22;6493;50.928;7.172;2022-10-30T11:45:07;18.70;53.30
12849;DHT22;6493;50.928;7.172;2022-10-30T11:50:18;18.70;53.50
12849;DHT22;6493;50.928;7.172;2022-10-30T11:55:28;18.80;53.10
12849;DHT22;6493;50.928;7.172;2022-10-30T12:00:35;18.90;53.30
12849;DHT22;6493;50.928;7.172;2022-10-30T12:05:40;18.90;53.10
12849;DHT22;6493;50.928;7.172;2022-10-30T12:10:59;19.00;52.80
12849;DHT22;6493;50.928;7.172;2022-10-30T12:16:14;19.00;52.20
12849;DHT22;6493;50.928;7.172;2022-10-30T12:21:18;19.10;51.80
12849;DHT22;6493;50.928;7.172;2022-10-30T12:26:24;19.10;52.70
12849;DHT22;6493;50.928;7.172;2022-10-30T12:31:33;19.20;52.40
12849;DHT22;6493;50.928;7.172;2022-10-30T12:36:43;19.20;52.10
12849;DHT22;6493;50.928;7.172;2022-10-30T12:41:57;19.20;51.90
12849;DHT22;6493;50.928;7.172;2022-10-30T12:47:05;19.30;52.10
12849;DHT22;6493;50.928;7.172;2022-10-30T12:52:13;19.30;52.40
12849;DHT22;6493;50.928;7.172;2022-10-30T12:57:24;19.30;52.40
12849;DHT22;6493;50.928;7.172;2022-10-30T13:02:45;19.40;52.30
12849;DHT22;6493;50.928;7.172;2022-10-30T13:07:59;19.40;52.10
12849;DHT22;6493;50.928;7.172;2022-10-30T13:13:09;19.40;52.00
12849;DHT22;6493;50.928;7.172;2022-10-30T13:18:23;19.40;51.80
12849;DHT22;6493;50.928;7.172;2022-10-30T13:23:33;19.40;51.90
12849;DHT22;6493;50.928;7.172;2022-10-30T13:28:57;19.40;51.90
12849;DHT22;6493;50.928;7.172;2022-10-30T13:34:06;19.40;50.20
12849;DHT22;6493;50.928;7.172;2022-10-30T13:39:27;19.50;51.30
12849;DHT22;6493;50.928;7.172;2022-10-30T13:44:43;19.40;51.10
12849;DHT22;6493;50.928;7.172;2022-10-30T13:50:13;19.40;50.90
12849;DHT22;6493;50.928;7.172;2022-10-30T13:55:33;19.30;51.00
12849;DHT22;6493;50.928;7.172;2022-10-30T14:00:56;19.30;51.20
12849;DHT22;6493;50.928;7.172;2022-10-30T14:06:07;19.20;51.10
12849;DHT22;6493;50.928;7.172;2022-10-30T14:11:13;19.20;51.50
12849;DHT22;6493;50.928;7.172;2022-10-30T14:16:40;19.10;51.50
12849;DHT22;6493;50.928;7.172;2022-10-30T14:21:58;19.00;51.30
12849;DHT22;6493;50.928;7.172;2022-10-30T14:27:17;19.00;51.40
12849;DHT22;6493;50.928;7.172;2022-10-30T14:32:38;18.80;51.40
12849;DHT22;6493;50.928;7.172;2022-10-30T14:37:54;18.80;51.60
12849;DHT22;6493;50.928;7.172;2022-10-30T14:43:02;18.70;51.80
12849;DHT22;6493;50.928;7.172;2022-10-30T14:48:14;18.70;52.30
12849;DHT22;6493;50.928;7.172;2022-10-30T14:53:41;18.60;51.70
12849;DHT22;6493;50.928;7.172;2022-10-30T14:59:09;18.50;51.60
12849;DHT22;6493;50.928;7.172;2022-10-30T15:04:20;18.40;51.50
12849;DHT22;6493;50.928;7.172;2022-10-30T15:09:43;18.30;51.60
12849;DHT22;6493;50.928;7.172;2022-10-30T15:14:52;18.20;51.20
12849;DHT22;6493;50.928;7.172;2022-10-30T15:20:01;18.10;51.40
12849;DHT22;6493;50.928;7.172;2022-10-30T15:25:14;17.90;51.20
12849;DHT22;6493;50.928;7.172;2022-10-30T15:30:23;17.80;51.20
12849;DHT22;6493;50.928;7.172;2022-10-30T15:35:28;17.70;51.30
12849;DHT22;6493;50.928;7.172;2022-10-30T15:40:33;17.60;51.30
12849;DHT22;6493;50.928;7.172;2022-10-30T15:45:40;17.50;51.40
12849;DHT22;6493;50.928;7.172;2022-10-30T15:50:56;17.50;51.50
12849;DHT22;6493;50.928;7.172;2022-10-30T15:56:01;17.30;51.30
12849;DHT22;6493;50.928;7.172;2022-10-30T16:01:05;17.20;51.50
12849;DHT22;6493;50.928;7.172;2022-10-30T16:06:15;17.10;51.50
12849;DHT22;6493;50.928;7.172;2022-10-30T16:11:19;17.00;51.60
12849;DHT22;6493;50.928;7.172;2022-10-30T16:16:26;16.90;51.60
12849;DHT22;6493;50.928;7.172;2022-10-30T16:21:31;16.80;51.50
12849;DHT22;6493;50.928;7.172;2022-10-30T16:26:36;16.70;51.40
12849;DHT22;6493;50.928;7.172;2022-10-30T16:31:42;16.60;51.60
12849;DHT22;6493;50.928;7.172;2022-10-30T16:36:52;16.50;51.60
12849;DHT22;6493;50.928;7.172;2022-10-30T16:41:59;16.40;51.60
12849;DHT22;6493;50.928;7.172;2022-10-30T16:47:06;16.30;51.70
12849;DHT22;6493;50.928;7.172;2022-10-30T16:52:15;16.20;51.70
12849;DHT22;6493;50.928;7.172;2022-10-30T16:57:22;16.10;51.70
12849;DHT22;6493;50.928;7.172;2022-10-30T17:02:32;16.00;51.80
12849;DHT22;6493;50.928;7.172;2022-10-30T17:07:38;15.90;51.90
12849;DHT22;6493;50.928;7.172;2022-10-30T17:12:42;15.80;51.90
12849;DHT22;6493;50.928;7.172;2022-10-30T17:18:09;15.80;51.90
12849;DHT22;6493;50.928;7.172;2022-10-30T17:23:17;15.70;52.00
12849;DHT22;6493;50.928;7.172;2022-10-30T17:28:28;15.60;52.00
12849;DHT22;6493;50.928;7.172;2022-10-30T17:33:36;15.60;52.00
12849;DHT22;6493;50.928;7.172;2022-10-30T17:38:41;15.50;52.00
12849;DHT22;6493;50.928;7.172;2022-10-30T17:43:49;15.40;52.00
12849;DHT22;6493;50.928;7.172;2022-10-30T17:48:53;15.40;52.10
12849;DHT22;6493;50.928;7.172;2022-10-30T17:53:59;15.30;52.00
12849;DHT22;6493;50.928;7.172;2022-10-30T17:59:02;15.30;52.10
12849;DHT22;6493;50.928;7.172;2022-10-30T18:04:11;15.20;52.60
12849;DHT22;6493;50.928;7.172;2022-10-30T18:09:26;15.20;52.20
12849;DHT22;6493;50.928;7.172;2022-10-30T18:14:29;15.10;52.10
12849;DHT22;6493;50.928;7.172;2022-10-30T18:19:32;15.00;52.20
12849;DHT22;6493;50.928;7.172;2022-10-30T18:24:37;15.00;52.20
12849;DHT22;6493;50.928;7.172;2022-10-30T18:29:40;14.90;52.20
12849;DHT22;6493;50.928;7.172;2022-10-30T18:34:43;14.90;52.20
12849;DHT22;6493;50.928;7.172;2022-10-30T18:39:48;14.80;52.20
12849;DHT22;6493;50.928;7.172;2022-10-30T18:44:51;14.70;52.30
12849;DHT22;6493;50.928;7.172;2022-10-30T18:49:55;14.60;52.20
12849;DHT22;6493;50.928;7.172;2022-10-30T18:54:59;14.50;52.30
12849;DHT22;6493;50.928;7.172;2022-10-30T19:00:04;14.50;52.40
12849;DHT22;6493;50.928;7.172;2022-10-30T19:05:26;14.40;52.40
12849;DHT22;6493;50.928;7.172;2022-10-30T19:10:36;14.30;52.60
12849;DHT22;6493;50.928;7.172;2022-10-30T19:15:42;14.20;52.40
12849;DHT22;6493;50.928;7.172;2022-10-30T19:20:46;14.20;52.50
12849;DHT22;6493;50.928;7.172;2022-10-30T19:26:09;14.10;52.50
12849;DHT22;6493;50.928;7.172;2022-10-30T19:31:16;14.10;52.60
12849;DHT22;6493;50.928;7.172;2022-10-30T19:36:27;14.10;52.70
12849;DHT22;6493;50.928;7.172;2022-10-30T19:41:33;14.00;52.80
12849;DHT22;6493;50.928;7.172;2022-10-30T19:46:37;13.90;52.70
12849;DHT22;6493;50.928;7.172;2022-10-30T19:51:40;13.90;52.70
12849;DHT22;6493;50.928;7.172;2022-10-30T19:56:45;13.80;52.70
12849;DHT22;6493;50.928;7.172;2022-10-30T20:01:48;13.80;52.80
12849;DHT22;6493;50.928;7.172;2022-10-30T20:06:51;13.70;52.80
12849;DHT22;6493;50.928;7.172;2022-10-30T20:12:02;13.70;52.90
12849;DHT22;6493;50.928;7.172;2022-10-30T20:17:05;13.70;53.00
12849;DHT22;6493;50.928;7.172;2022-10-30T20:22:09;13.60;53.00
12849;DHT22;6493;50.928;7.172;2022-10-30T20:27:14;13.60;53.70
12849;DHT22;6493;50.928;7.172;2022-10-30T20:32:17;13.50;53.10
12849;DHT22;6493;50.928;7.172;2022-10-30T20:37:20;13.50;53.10
12849;DHT22;6493;50.928;7.172;2022-10-30T20:42:25;13.40;53.10
12849;DHT22;6493;50.928;7.172;2022-10-30T20:47:35;13.40;53.10
12849;DHT22;6493;50.928;7.172;2022-10-30T20:52:38;13.40;53.10
12849;DHT22;6493;50.928;7.172;2022-10-30T20:57:43;13.30;53.20
12849;DHT22;6493;50.928;7.172;2022-10-30T21:02:46;13.30;53.30
12849;DHT22;6493;50.928;7.172;2022-10-30T21:07:50;13.20;53.30
12849;DHT22;6493;50.928;7.172;2022-10-30T21:12:55;13.20;53.40
12849;DHT22;6493;50.928;7.172;2022-10-30T21:18:03;13.10;53.40
12849;DHT22;6493;50.928;7.172;2022-10-30T21:23:06;13.00;53.30
12849;DHT22;6493;50.928;7.172;2022-10-30T21:28:10;13.00;53.40
12849;DHT22;6493;50.928;7.172;2022-10-30T21:33:14;12.90;53.40
12849;DHT22;6493;50.928;7.172;2022-10-30T21:38:17;12.90;53.50
12849;DHT22;6493;50.928;7.172;2022-10-30T21:43:21;12.80;53.50
12849;DHT22;6493;50.928;7.172;2022-10-30T21:48:25;12.80;53.60
12849;DHT22;6493;50.928;7.172;2022-10-30T21:53:29;12.70;53.60
12849;DHT22;6493;50.928;7.172;2022-10-30T21:58:34;12.60;53.60
12849;DHT22;6493;50.928;7.172;2022-10-30T22:03:37;12.60;54.30
12849;DHT22;6493;50.928;7.172;2022-10-30T22:08:43;12.50;53.70
12849;DHT22;6493;50.928;7.172;2022-10-30T22:13:51;12.50;53.80
12849;DHT22;6493;50.928;7.172;2022-10-30T22:18:55;12.50;54.00
12849;DHT22;6493;50.928;7.172;2022-10-30T22:23:59;12.40;54.40
12849;DHT22;6493;50.928;7.172;2022-10-30T22:29:03;12.30;53.90
12849;DHT22;6493;50.928;7.172;2022-10-30T22:34:07;12.30;54.00
12849;DHT22;6493;50.928;7.172;2022-10-30T22:39:11;12.30;54.10
12849;DHT22;6493;50.928;7.172;2022-10-30T22:44:16;12.20;54.10
12849;DHT22;6493;50.928;7.172;2022-10-30T22:49:20;12.20;54.20
12849;DHT22;6493;50.928;7.172;2022-10-30T22:54:23;12.20;54.10
12849;DHT22;6493;50.928;7.172;2022-10-30T22:59:28;12.10;54.10
12849;DHT22;6493;50.928;7.172;2022-10-30T23:04:31;12.10;54.30
12849;DHT22;6493;50.928;7.172;2022-10-30T23:09:34;12.00;54.20
12849;DHT22;6493;50.928;7.172;2022-10-30T23:14:39;11.90;54.20
12849;DHT22;6493;50.928;7.172;2022-10-30T23:19:42;11.90;54.30
12849;DHT22;6493;50.928;7.172;2022-10-30T23:24:47;11.80;54.20
12849;DHT22;6493;50.928;7.172;2022-10-30T23:29:51;11.70;54.30
12849;DHT22;6493;50.928;7.172;2022-10-30T23:34:55;11.70;54.40
12849;DHT22;6493;50.928;7.172;2022-10-30T23:39:58;11.60;54.40
12849;DHT22;6493;50.928;7.172;2022-10-30T23:45:03;11.60;54.50
12849;DHT22;6493;50.928;7.172;2022-10-30T23:50:07;11.50;54.50
12849;DHT22;6493;50.928;7.172;2022-10-30T23:55:10;11.40;54.50
